Aeroporto :
LOGIN :

Iscrizione | Disclaimer

   EN    FR    IT 

 










Sommario :    VFR   VFR Marginale   IFR   IFR Intensivo   IFR Molto Intensivo
Visibilità : 
Base nubi : 
>= 8 km
>= 3000ft
5 / 8 km
1000 / 3000 ft
1500m / 5 km
500 / 1000 ft
800 / 1500m
200 / 500 ft
< 800m
< 200 ft
Simboli :   Temporali  Nebbia  Neve Forte  Precipitazioni Forti  Vento > 20 kt
SIGMETs :   Varie  Temporali  Ghiacco  Turbolenza  Onda orograficha  Ceneri Vulcaniche






- Altitudine del aeroporto : 16 ft
- Codice IATA : SDR


LEXJ - Santander Cantabria

ULTIMO METAR :
  • 131430Z 23006KT 200V260 9999 FEW018 SCT042 BKN050 12/10 Q1012

METARs OBSOLETI :
  • 131400Z 25007KT 220V280 9999 FEW018 SCT042 BKN050 13/11 Q1012
  • 131330Z 28008KT 9000 -RA FEW018 SCT032 BKN048 12/11 Q1012
  • 131300Z 28008KT 220V330 2500 RADZ SCT014 BKN032 BKN050 12/10 Q1012
  • 131230Z 22007KT 9999 SCT036 SCT052 13/10 Q1013
  • 131200Z 29008KT 260V330 9999 BKN036 SCT060 13/09 Q1013
  • 131130Z 30009KT 270V330 9999 FEW030 BKN044 14/08 Q1013

TAF TAF LEXJ
Valido dal 13 a 15 ore il 14 a 15 ore UTC


131400Z 1315/1415 27009KT 8000 SCT020 BKN045 TX13/1414Z TN08/1403Z
TEMPO 1321/1409 27018G32KT
PROB40
TEMPO 1321/1403 26025G43KT
PROB30
TEMPO 1321/1403 27020G43KT
TEMPO 1318/1407 3000 RA SHRA BKN010 BKN020TCU
PROB40
TEMPO 1400/1407 3000 TSRA BKN010 BKN020CB
TEMPO 1412/1415 3000 RA SHRA BKN010 BKN020TCU



MetMap, La meteo Aeronautica in un colpo d'occhio ! - Copyright ORBIFLY Dicembre 2007 - Disclaimer

ORBIFLY MET'MAP TEAM :

Programmazione e sviluppo : Alexandra Zaïnal
Concezione e sviluppo : Baudouin d'Aumeries
Co-Programmazione e sviluppo : Marc-Olivier Méhu
Supporto tecnico e logistico : Manuel Goepfert
Aiuto per la traduzione : Arnaldo La Scala

Contatto : metmap@orbifly.com




FONTI E CREDITI :

   NOAA